sensor_id;sensor_type;location;lat;lon;timestamp;P1;durP1;ratioP1;P2;durP2;ratioP2
19780;SDS011;10050;55.492;13.506;2022-12-17T00:01:29;3.80;;;2.50;;
19780;SDS011;10050;55.492;13.506;2022-12-17T00:04:13;2.90;;;2.40;;
19780;SDS011;10050;55.492;13.506;2022-12-17T00:06:57;2.60;;;2.20;;
19780;SDS011;10050;55.492;13.506;2022-12-17T00:09:41;2.73;;;2.17;;
19780;SDS011;10050;55.492;13.506;2022-12-17T00:12:26;2.57;;;2.20;;
19780;SDS011;10050;55.492;13.506;2022-12-17T00:15:10;2.40;;;2.20;;
19780;SDS011;10050;55.492;13.506;2022-12-17T00:18:01;2.67;;;2.07;;
19780;SDS011;10050;55.492;13.506;2022-12-17T00:20:50;2.93;;;1.93;;
19780;SDS011;10050;55.492;13.506;2022-12-17T00:23:36;1.93;;;1.83;;
19780;SDS011;10050;55.492;13.506;2022-12-17T00:26:20;3.50;;;2.33;;
19780;SDS011;10050;55.492;13.506;2022-12-17T00:29:04;2.57;;;2.30;;
19780;SDS011;10050;55.492;13.506;2022-12-17T00:31:48;2.97;;;2.40;;
19780;SDS011;10050;55.492;13.506;2022-12-17T00:34:32;3.27;;;2.23;;
19780;SDS011;10050;55.492;13.506;2022-12-17T00:37:17;2.50;;;2.30;;
19780;SDS011;10050;55.492;13.506;2022-12-17T00:40:01;5.37;;;2.70;;
19780;SDS011;10050;55.492;13.506;2022-12-17T00:42:45;3.63;;;2.50;;
19780;SDS011;10050;55.492;13.506;2022-12-17T00:45:29;2.57;;;2.33;;
19780;SDS011;10050;55.492;13.506;2022-12-17T00:48:14;2.90;;;2.33;;
19780;SDS011;10050;55.492;13.506;2022-12-17T00:50:58;2.90;;;2.27;;
19780;SDS011;10050;55.492;13.506;2022-12-17T00:53:42;2.30;;;2.10;;
19780;SDS011;10050;55.492;13.506;2022-12-17T00:56:26;1.87;;;1.77;;
19780;SDS011;10050;55.492;13.506;2022-12-17T00:59:11;2.80;;;2.30;;
19780;SDS011;10050;55.492;13.506;2022-12-17T01:01:55;4.83;;;2.57;;
19780;SDS011;10050;55.492;13.506;2022-12-17T01:04:39;3.67;;;2.27;;
19780;SDS011;10050;55.492;13.506;2022-12-17T01:07:23;2.83;;;1.90;;
19780;SDS011;10050;55.492;13.506;2022-12-17T01:10:08;2.20;;;2.00;;
19780;SDS011;10050;55.492;13.506;2022-12-17T01:12:52;2.30;;;1.77;;
19780;SDS011;10050;55.492;13.506;2022-12-17T01:15:36;2.73;;;2.20;;
19780;SDS011;10050;55.492;13.506;2022-12-17T01:18:20;2.20;;;2.00;;
19780;SDS011;10050;55.492;13.506;2022-12-17T01:21:05;2.13;;;1.93;;
19780;SDS011;10050;55.492;13.506;2022-12-17T01:23:49;2.00;;;1.90;;
19780;SDS011;10050;55.492;13.506;2022-12-17T01:26:33;2.00;;;1.70;;
19780;SDS011;10050;55.492;13.506;2022-12-17T01:29:17;2.07;;;1.93;;
19780;SDS011;10050;55.492;13.506;2022-12-17T01:32:01;2.07;;;1.57;;
19780;SDS011;10050;55.492;13.506;2022-12-17T01:34:45;1.63;;;1.43;;
19780;SDS011;10050;55.492;13.506;2022-12-17T01:37:30;2.67;;;2.10;;
19780;SDS011;10050;55.492;13.506;2022-12-17T01:40:14;2.67;;;2.17;;
19780;SDS011;10050;55.492;13.506;2022-12-17T01:43:04;2.07;;;1.83;;
19780;SDS011;10050;55.492;13.506;2022-12-17T01:45:53;2.17;;;2.00;;
19780;SDS011;10050;55.492;13.506;2022-12-17T01:48:41;1.73;;;1.63;;
19780;SDS011;10050;55.492;13.506;2022-12-17T01:51:29;1.97;;;1.87;;
19780;SDS011;10050;55.492;13.506;2022-12-17T01:54:15;2.40;;;2.00;;
19780;SDS011;10050;55.492;13.506;2022-12-17T01:57:00;1.93;;;1.83;;
19780;SDS011;10050;55.492;13.506;2022-12-17T01:59:49;3.43;;;2.10;;
19780;SDS011;10050;55.492;13.506;2022-12-17T02:02:39;2.30;;;2.03;;
19780;SDS011;10050;55.492;13.506;2022-12-17T02:05:27;2.23;;;2.03;;
19780;SDS011;10050;55.492;13.506;2022-12-17T02:08:36;3.30;;;2.40;;
19780;SDS011;10050;55.492;13.506;2022-12-17T02:14:35;7.10;;;2.60;;
19780;SDS011;10050;55.492;13.506;2022-12-17T02:17:22;1.83;;;1.73;;
19780;SDS011;10050;55.492;13.506;2022-12-17T02:20:39;1.77;;;1.60;;
19780;SDS011;10050;55.492;13.506;2022-12-17T02:26:42;2.20;;;2.00;;
19780;SDS011;10050;55.492;13.506;2022-12-17T02:29:48;2.13;;;1.97;;
19780;SDS011;10050;55.492;13.506;2022-12-17T02:32:37;2.37;;;2.17;;
19780;SDS011;10050;55.492;13.506;2022-12-17T02:35:25;2.20;;;2.00;;
19780;SDS011;10050;55.492;13.506;2022-12-17T02:38:22;2.50;;;1.80;;
19780;SDS011;10050;55.492;13.506;2022-12-17T02:41:09;2.07;;;1.87;;
19780;SDS011;10050;55.492;13.506;2022-12-17T02:43:59;3.07;;;2.13;;
19780;SDS011;10050;55.492;13.506;2022-12-17T02:46:44;4.57;;;2.30;;
19780;SDS011;10050;55.492;13.506;2022-12-17T02:49:29;2.20;;;1.93;;
19780;SDS011;10050;55.492;13.506;2022-12-17T02:52:15;2.53;;;2.27;;
19780;SDS011;10050;55.492;13.506;2022-12-17T02:55:02;2.20;;;2.00;;
19780;SDS011;10050;55.492;13.506;2022-12-17T02:57:47;2.20;;;2.00;;
19780;SDS011;10050;55.492;13.506;2022-12-17T03:00:31;4.03;;;2.07;;
19780;SDS011;10050;55.492;13.506;2022-12-17T03:03:15;2.20;;;2.07;;
19780;SDS011;10050;55.492;13.506;2022-12-17T03:06:00;1.57;;;1.47;;
19780;SDS011;10050;55.492;13.506;2022-12-17T03:08:44;1.83;;;1.57;;
19780;SDS011;10050;55.492;13.506;2022-12-17T03:11:28;3.33;;;2.10;;
19780;SDS011;10050;55.492;13.506;2022-12-17T03:14:13;1.70;;;1.60;;
19780;SDS011;10050;55.492;13.506;2022-12-17T03:16:57;1.90;;;1.80;;
19780;SDS011;10050;55.492;13.506;2022-12-17T03:19:42;2.73;;;1.97;;
19780;SDS011;10050;55.492;13.506;2022-12-17T03:22:26;3.40;;;2.10;;
19780;SDS011;10050;55.492;13.506;2022-12-17T03:25:10;2.07;;;1.80;;
19780;SDS011;10050;55.492;13.506;2022-12-17T03:27:54;2.03;;;1.63;;
19780;SDS011;10050;55.492;13.506;2022-12-17T03:30:39;5.67;;;2.13;;
19780;SDS011;10050;55.492;13.506;2022-12-17T03:33:23;2.47;;;1.90;;
19780;SDS011;10050;55.492;13.506;2022-12-17T03:36:07;2.57;;;2.10;;
19780;SDS011;10050;55.492;13.506;2022-12-17T03:38:51;2.47;;;2.27;;
19780;SDS011;10050;55.492;13.506;2022-12-17T03:41:36;3.10;;;2.40;;
19780;SDS011;10050;55.492;13.506;2022-12-17T03:44:20;2.67;;;2.00;;
19780;SDS011;10050;55.492;13.506;2022-12-17T03:47:04;3.77;;;1.87;;
19780;SDS011;10050;55.492;13.506;2022-12-17T03:49:48;2.47;;;1.97;;
19780;SDS011;10050;55.492;13.506;2022-12-17T03:52:33;2.03;;;1.93;;
19780;SDS011;10050;55.492;13.506;2022-12-17T03:55:17;2.27;;;2.00;;
19780;SDS011;10050;55.492;13.506;2022-12-17T03:58:01;2.47;;;2.27;;
19780;SDS011;10050;55.492;13.506;2022-12-17T04:00:45;2.20;;;2.00;;
19780;SDS011;10050;55.492;13.506;2022-12-17T04:03:29;2.20;;;2.03;;
19780;SDS011;10050;55.492;13.506;2022-12-17T04:06:13;2.20;;;2.03;;
19780;SDS011;10050;55.492;13.506;2022-12-17T04:08:58;2.40;;;2.13;;
19780;SDS011;10050;55.492;13.506;2022-12-17T04:11:42;2.63;;;2.07;;
19780;SDS011;10050;55.492;13.506;2022-12-17T04:14:26;2.70;;;2.10;;
19780;SDS011;10050;55.492;13.506;2022-12-17T04:17:11;3.20;;;2.43;;
19780;SDS011;10050;55.492;13.506;2022-12-17T04:19:55;2.67;;;2.40;;
19780;SDS011;10050;55.492;13.506;2022-12-17T04:22:39;2.40;;;1.80;;
19780;SDS011;10050;55.492;13.506;2022-12-17T04:25:23;2.70;;;2.07;;
19780;SDS011;10050;55.492;13.506;2022-12-17T04:28:07;3.43;;;2.37;;
19780;SDS011;10050;55.492;13.506;2022-12-17T04:30:52;2.43;;;2.23;;
19780;SDS011;10050;55.492;13.506;2022-12-17T04:33:36;3.57;;;2.07;;
19780;SDS011;10050;55.492;13.506;2022-12-17T04:36:20;6.10;;;2.57;;
19780;SDS011;10050;55.492;13.506;2022-12-17T04:39:04;2.30;;;1.97;;
19780;SDS011;10050;55.492;13.506;2022-12-17T04:41:48;2.30;;;2.20;;
19780;SDS011;10050;55.492;13.506;2022-12-17T04:44:33;2.43;;;2.20;;
19780;SDS011;10050;55.492;13.506;2022-12-17T04:47:17;2.00;;;1.90;;
19780;SDS011;10050;55.492;13.506;2022-12-17T04:50:01;2.50;;;2.30;;
19780;SDS011;10050;55.492;13.506;2022-12-17T04:52:45;3.37;;;2.47;;
19780;SDS011;10050;55.492;13.506;2022-12-17T04:55:30;2.40;;;2.20;;
19780;SDS011;10050;55.492;13.506;2022-12-17T04:58:14;3.33;;;3.00;;
19780;SDS011;10050;55.492;13.506;2022-12-17T05:00:58;7.83;;;2.67;;
19780;SDS011;10050;55.492;13.506;2022-12-17T05:03:42;2.97;;;2.53;;
19780;SDS011;10050;55.492;13.506;2022-12-17T05:06:26;2.70;;;2.37;;
19780;SDS011;10050;55.492;13.506;2022-12-17T05:09:11;5.80;;;2.53;;
19780;SDS011;10050;55.492;13.506;2022-12-17T05:11:55;12.13;;;4.37;;
19780;SDS011;10050;55.492;13.506;2022-12-17T05:14:39;17.97;;;5.60;;
19780;SDS011;10050;55.492;13.506;2022-12-17T05:17:23;23.87;;;6.63;;
19780;SDS011;10050;55.492;13.506;2022-12-17T05:20:07;21.50;;;6.97;;
19780;SDS011;10050;55.492;13.506;2022-12-17T05:22:52;26.40;;;7.23;;
19780;SDS011;10050;55.492;13.506;2022-12-17T05:25:36;20.90;;;7.60;;
19780;SDS011;10050;55.492;13.506;2022-12-17T05:28:20;21.53;;;7.43;;
19780;SDS011;10050;55.492;13.506;2022-12-17T05:31:04;27.97;;;8.83;;
19780;SDS011;10050;55.492;13.506;2022-12-17T05:33:48;49.57;;;10.47;;
19780;SDS011;10050;55.492;13.506;2022-12-17T05:36:33;41.47;;;10.50;;
19780;SDS011;10050;55.492;13.506;2022-12-17T05:39:17;26.63;;;10.07;;
19780;SDS011;10050;55.492;13.506;2022-12-17T05:42:03;26.47;;;10.10;;
19780;SDS011;10050;55.492;13.506;2022-12-17T05:44:47;24.27;;;9.73;;
19780;SDS011;10050;55.492;13.506;2022-12-17T05:47:31;25.27;;;8.37;;
19780;SDS011;10050;55.492;13.506;2022-12-17T05:50:16;20.20;;;8.57;;
19780;SDS011;10050;55.492;13.506;2022-12-17T05:53:03;23.17;;;11.43;;
19780;SDS011;10050;55.492;13.506;2022-12-17T05:55:51;30.23;;;9.47;;
19780;SDS011;10050;55.492;13.506;2022-12-17T05:58:36;19.13;;;8.43;;
19780;SDS011;10050;55.492;13.506;2022-12-17T06:01:21;29.43;;;10.70;;
19780;SDS011;10050;55.492;13.506;2022-12-17T06:04:05;23.43;;;10.27;;
19780;SDS011;10050;55.492;13.506;2022-12-17T06:06:49;19.63;;;9.67;;
19780;SDS011;10050;55.492;13.506;2022-12-17T06:09:33;26.63;;;9.73;;
19780;SDS011;10050;55.492;13.506;2022-12-17T06:12:18;27.00;;;11.63;;
19780;SDS011;10050;55.492;13.506;2022-12-17T06:15:02;32.37;;;10.73;;
19780;SDS011;10050;55.492;13.506;2022-12-17T06:17:53;23.27;;;9.20;;
19780;SDS011;10050;55.492;13.506;2022-12-17T06:20:39;31.77;;;10.33;;
19780;SDS011;10050;55.492;13.506;2022-12-17T06:23:23;36.33;;;10.83;;
19780;SDS011;10050;55.492;13.506;2022-12-17T06:26:07;32.47;;;10.57;;
19780;SDS011;10050;55.492;13.506;2022-12-17T06:28:51;41.17;;;12.27;;
19780;SDS011;10050;55.492;13.506;2022-12-17T06:31:36;29.97;;;10.20;;
19780;SDS011;10050;55.492;13.506;2022-12-17T06:34:20;33.80;;;10.37;;
19780;SDS011;10050;55.492;13.506;2022-12-17T06:37:04;35.53;;;9.97;;
19780;SDS011;10050;55.492;13.506;2022-12-17T06:39:48;47.67;;;12.63;;
19780;SDS011;10050;55.492;13.506;2022-12-17T06:42:33;49.70;;;13.60;;
19780;SDS011;10050;55.492;13.506;2022-12-17T06:45:17;36.30;;;14.27;;
19780;SDS011;10050;55.492;13.506;2022-12-17T06:48:02;39.97;;;13.73;;
19780;SDS011;10050;55.492;13.506;2022-12-17T06:50:47;37.50;;;12.47;;
19780;SDS011;10050;55.492;13.506;2022-12-17T06:53:31;36.00;;;11.90;;
19780;SDS011;10050;55.492;13.506;2022-12-17T06:56:26;32.80;;;11.47;;
19780;SDS011;10050;55.492;13.506;2022-12-17T06:59:11;26.00;;;10.77;;
19780;SDS011;10050;55.492;13.506;2022-12-17T07:01:55;52.77;;;13.23;;
19780;SDS011;10050;55.492;13.506;2022-12-17T07:04:39;31.27;;;11.80;;
19780;SDS011;10050;55.492;13.506;2022-12-17T07:07:23;37.37;;;14.20;;
19780;SDS011;10050;55.492;13.506;2022-12-17T07:10:08;30.77;;;11.13;;
19780;SDS011;10050;55.492;13.506;2022-12-17T07:12:52;35.87;;;10.33;;
19780;SDS011;10050;55.492;13.506;2022-12-17T07:15:36;46.40;;;15.03;;
19780;SDS011;10050;55.492;13.506;2022-12-17T07:18:20;34.07;;;11.63;;
19780;SDS011;10050;55.492;13.506;2022-12-17T07:21:04;36.97;;;12.33;;
19780;SDS011;10050;55.492;13.506;2022-12-17T07:23:48;41.57;;;13.40;;
19780;SDS011;10050;55.492;13.506;2022-12-17T07:26:33;37.77;;;12.53;;
19780;SDS011;10050;55.492;13.506;2022-12-17T07:29:17;51.70;;;16.83;;
19780;SDS011;10050;55.492;13.506;2022-12-17T07:32:01;33.90;;;13.03;;
19780;SDS011;10050;55.492;13.506;2022-12-17T07:34:45;36.97;;;13.67;;
19780;SDS011;10050;55.492;13.506;2022-12-17T07:37:29;32.03;;;12.90;;
19780;SDS011;10050;55.492;13.506;2022-12-17T07:40:13;35.47;;;14.73;;
19780;SDS011;10050;55.492;13.506;2022-12-17T07:42:58;38.10;;;14.30;;
19780;SDS011;10050;55.492;13.506;2022-12-17T07:45:42;37.23;;;15.00;;
19780;SDS011;10050;55.492;13.506;2022-12-17T07:48:26;32.93;;;12.63;;
19780;SDS011;10050;55.492;13.506;2022-12-17T07:51:11;30.93;;;12.73;;
19780;SDS011;10050;55.492;13.506;2022-12-17T07:53:55;31.40;;;11.83;;
19780;SDS011;10050;55.492;13.506;2022-12-17T07:56:39;32.43;;;13.53;;
19780;SDS011;10050;55.492;13.506;2022-12-17T07:59:23;27.07;;;12.43;;
19780;SDS011;10050;55.492;13.506;2022-12-17T08:02:08;25.20;;;11.03;;
19780;SDS011;10050;55.492;13.506;2022-12-17T08:04:53;25.13;;;12.40;;
19780;SDS011;10050;55.492;13.506;2022-12-17T08:07:37;24.33;;;10.73;;
19780;SDS011;10050;55.492;13.506;2022-12-17T08:10:21;18.43;;;10.13;;
19780;SDS011;10050;55.492;13.506;2022-12-17T08:13:06;18.23;;;9.10;;
19780;SDS011;10050;55.492;13.506;2022-12-17T08:15:51;14.33;;;8.70;;
19780;SDS011;10050;55.492;13.506;2022-12-17T08:18:36;17.60;;;8.33;;
19780;SDS011;10050;55.492;13.506;2022-12-17T08:21:21;17.03;;;7.33;;
19780;SDS011;10050;55.492;13.506;2022-12-17T08:24:05;17.87;;;7.67;;
19780;SDS011;10050;55.492;13.506;2022-12-17T08:26:49;15.67;;;7.83;;
19780;SDS011;10050;55.492;13.506;2022-12-17T08:29:33;16.67;;;8.20;;
19780;SDS011;10050;55.492;13.506;2022-12-17T08:32:17;13.07;;;7.97;;
19780;SDS011;10050;55.492;13.506;2022-12-17T08:35:01;13.00;;;7.77;;
19780;SDS011;10050;55.492;13.506;2022-12-17T08:37:46;18.27;;;9.77;;
19780;SDS011;10050;55.492;13.506;2022-12-17T08:40:30;22.70;;;10.60;;
19780;SDS011;10050;55.492;13.506;2022-12-17T08:43:14;17.60;;;11.00;;
19780;SDS011;10050;55.492;13.506;2022-12-17T08:45:58;22.70;;;11.67;;
19780;SDS011;10050;55.492;13.506;2022-12-17T08:48:43;20.90;;;11.43;;
19780;SDS011;10050;55.492;13.506;2022-12-17T08:51:27;21.63;;;11.07;;
19780;SDS011;10050;55.492;13.506;2022-12-17T08:54:11;20.90;;;11.40;;
19780;SDS011;10050;55.492;13.506;2022-12-17T08:56:55;22.07;;;11.57;;
19780;SDS011;10050;55.492;13.506;2022-12-17T08:59:40;21.77;;;10.63;;
19780;SDS011;10050;55.492;13.506;2022-12-17T09:02:24;20.47;;;10.13;;
19780;SDS011;10050;55.492;13.506;2022-12-17T09:05:08;17.00;;;9.67;;
19780;SDS011;10050;55.492;13.506;2022-12-17T09:08:03;22.83;;;11.40;;
19780;SDS011;10050;55.492;13.506;2022-12-17T09:10:49;19.73;;;10.17;;
19780;SDS011;10050;55.492;13.506;2022-12-17T09:13:33;19.53;;;11.23;;
19780;SDS011;10050;55.492;13.506;2022-12-17T09:16:18;16.97;;;9.43;;
19780;SDS011;10050;55.492;13.506;2022-12-17T09:19:02;17.77;;;10.00;;
19780;SDS011;10050;55.492;13.506;2022-12-17T09:21:47;18.50;;;10.40;;
19780;SDS011;10050;55.492;13.506;2022-12-17T09:24:31;17.47;;;10.10;;
19780;SDS011;10050;55.492;13.506;2022-12-17T09:27:15;17.10;;;9.73;;
19780;SDS011;10050;55.492;13.506;2022-12-17T09:29:59;18.47;;;10.40;;
19780;SDS011;10050;55.492;13.506;2022-12-17T09:32:43;15.80;;;10.30;;
19780;SDS011;10050;55.492;13.506;2022-12-17T09:35:28;19.13;;;11.00;;
19780;SDS011;10050;55.492;13.506;2022-12-17T09:38:12;20.00;;;10.03;;
19780;SDS011;10050;55.492;13.506;2022-12-17T09:41:18;17.00;;;10.63;;
19780;SDS011;10050;55.492;13.506;2022-12-17T09:44:23;16.07;;;9.70;;
19780;SDS011;10050;55.492;13.506;2022-12-17T09:50:22;15.80;;;10.93;;
19780;SDS011;10050;55.492;13.506;2022-12-17T09:56:22;20.63;;;12.97;;
19780;SDS011;10050;55.492;13.506;2022-12-17T10:02:11;17.53;;;11.37;;
19780;SDS011;10050;55.492;13.506;2022-12-17T10:05:06;20.37;;;12.80;;
19780;SDS011;10050;55.492;13.506;2022-12-17T10:07:56;15.53;;;10.63;;
19780;SDS011;10050;55.492;13.506;2022-12-17T10:10:43;16.73;;;11.23;;
19780;SDS011;10050;55.492;13.506;2022-12-17T10:13:29;20.50;;;12.40;;
19780;SDS011;10050;55.492;13.506;2022-12-17T10:19:03;18.60;;;11.47;;
19780;SDS011;10050;55.492;13.506;2022-12-17T10:21:53;19.90;;;10.37;;
19780;SDS011;10050;55.492;13.506;2022-12-17T10:24:48;11.90;;;9.17;;
19780;SDS011;10050;55.492;13.506;2022-12-17T10:27:32;14.47;;;8.83;;
19780;SDS011;10050;55.492;13.506;2022-12-17T10:30:16;16.73;;;10.23;;
19780;SDS011;10050;55.492;13.506;2022-12-17T10:33:03;13.23;;;9.73;;
19780;SDS011;10050;55.492;13.506;2022-12-17T10:35:49;13.67;;;9.73;;
19780;SDS011;10050;55.492;13.506;2022-12-17T10:38:34;13.03;;;8.90;;
19780;SDS011;10050;55.492;13.506;2022-12-17T10:41:26;12.70;;;8.53;;
19780;SDS011;10050;55.492;13.506;2022-12-17T10:44:19;13.70;;;8.93;;
19780;SDS011;10050;55.492;13.506;2022-12-17T10:47:13;11.70;;;8.40;;
19780;SDS011;10050;55.492;13.506;2022-12-17T10:50:07;13.33;;;9.60;;
19780;SDS011;10050;55.492;13.506;2022-12-17T10:52:53;14.30;;;10.33;;
19780;SDS011;10050;55.492;13.506;2022-12-17T10:55:45;12.73;;;9.20;;
19780;SDS011;10050;55.492;13.506;2022-12-17T10:58:31;10.60;;;8.20;;
19780;SDS011;10050;55.492;13.506;2022-12-17T11:01:24;10.93;;;8.87;;
19780;SDS011;10050;55.492;13.506;2022-12-17T11:04:28;10.50;;;8.67;;
19780;SDS011;10050;55.492;13.506;2022-12-17T11:07:33;7.47;;;6.43;;
19780;SDS011;10050;55.492;13.506;2022-12-17T11:10:23;8.63;;;6.57;;
19780;SDS011;10050;55.492;13.506;2022-12-17T11:13:10;4.50;;;4.10;;
19780;SDS011;10050;55.492;13.506;2022-12-17T11:16:20;10.40;;;6.90;;
19780;SDS011;10050;55.492;13.506;2022-12-17T11:22:02;8.80;;;6.83;;
19780;SDS011;10050;55.492;13.506;2022-12-17T11:25:05;8.50;;;6.70;;
19780;SDS011;10050;55.492;13.506;2022-12-17T11:28:10;7.33;;;6.07;;
19780;SDS011;10050;55.492;13.506;2022-12-17T11:34:39;12.37;;;9.10;;
19780;SDS011;10050;55.492;13.506;2022-12-17T11:40:48;8.93;;;7.57;;
19780;SDS011;10050;55.492;13.506;2022-12-17T11:47:05;10.77;;;8.73;;
19780;SDS011;10050;55.492;13.506;2022-12-17T11:53:01;12.07;;;9.07;;
19780;SDS011;10050;55.492;13.506;2022-12-17T11:56:04;12.50;;;9.33;;
19780;SDS011;10050;55.492;13.506;2022-12-17T11:58:58;12.27;;;8.67;;
19780;SDS011;10050;55.492;13.506;2022-12-17T12:02:03;12.80;;;9.30;;
19780;SDS011;10050;55.492;13.506;2022-12-17T12:05:13;15.03;;;9.20;;
19780;SDS011;10050;55.492;13.506;2022-12-17T12:11:36;14.27;;;9.17;;
19780;SDS011;10050;55.492;13.506;2022-12-17T12:14:30;11.27;;;7.93;;
19780;SDS011;10050;55.492;13.506;2022-12-17T12:17:39;12.40;;;8.77;;
19780;SDS011;10050;55.492;13.506;2022-12-17T12:30:09;21.57;;;15.43;;
19780;SDS011;10050;55.492;13.506;2022-12-17T12:36:13;13.80;;;9.93;;
19780;SDS011;10050;55.492;13.506;2022-12-17T12:39:01;20.77;;;14.40;;
19780;SDS011;10050;55.492;13.506;2022-12-17T12:41:49;22.83;;;15.63;;
19780;SDS011;10050;55.492;13.506;2022-12-17T12:44:58;22.53;;;15.07;;
19780;SDS011;10050;55.492;13.506;2022-12-17T12:53:58;17.40;;;11.43;;
19780;SDS011;10050;55.492;13.506;2022-12-17T12:56:43;15.67;;;11.20;;
19780;SDS011;10050;55.492;13.506;2022-12-17T12:59:28;17.40;;;11.90;;
19780;SDS011;10050;55.492;13.506;2022-12-17T13:02:29;15.07;;;10.93;;
19780;SDS011;10050;55.492;13.506;2022-12-17T13:10:33;18.03;;;12.10;;
19780;SDS011;10050;55.492;13.506;2022-12-17T13:15:55;16.10;;;11.90;;
19780;SDS011;10050;55.492;13.506;2022-12-17T13:21:42;18.13;;;12.23;;
19780;SDS011;10050;55.492;13.506;2022-12-17T13:23:43;17.83;;;11.20;;
19780;SDS011;10050;55.492;13.506;2022-12-17T13:31:21;17.37;;;11.83;;
19780;SDS011;10050;55.492;13.506;2022-12-17T13:33:54;17.80;;;12.13;;
19780;SDS011;10050;55.492;13.506;2022-12-17T13:36:28;20.00;;;13.13;;
19780;SDS011;10050;55.492;13.506;2022-12-17T13:41:27;20.00;;;11.40;;
19780;SDS011;10050;55.492;13.506;2022-12-17T13:43:58;19.33;;;11.90;;
19780;SDS011;10050;55.492;13.506;2022-12-17T13:46:28;28.50;;;14.97;;
19780;SDS011;10050;55.492;13.506;2022-12-17T13:49:03;22.50;;;14.68;;
19780;SDS011;10050;55.492;13.506;2022-12-17T13:51:38;30.63;;;18.30;;
19780;SDS011;10050;55.492;13.506;2022-12-17T13:54:03;25.93;;;16.67;;
19780;SDS011;10050;55.492;13.506;2022-12-17T13:56:30;26.83;;;16.90;;
19780;SDS011;10050;55.492;13.506;2022-12-17T13:58:58;37.15;;;19.13;;
19780;SDS011;10050;55.492;13.506;2022-12-17T14:01:29;34.40;;;18.20;;
19780;SDS011;10050;55.492;13.506;2022-12-17T14:03:56;31.07;;;17.03;;
19780;SDS011;10050;55.492;13.506;2022-12-17T14:06:24;28.83;;;15.23;;
19780;SDS011;10050;55.492;13.506;2022-12-17T14:08:53;24.27;;;15.07;;
19780;SDS011;10050;55.492;13.506;2022-12-17T14:11:20;23.90;;;15.47;;
19780;SDS011;10050;55.492;13.506;2022-12-17T14:14:48;26.60;;;15.40;;
19780;SDS011;10050;55.492;13.506;2022-12-17T14:16:56;22.30;;;14.17;;
19780;SDS011;10050;55.492;13.506;2022-12-17T14:19:22;24.47;;;15.30;;
19780;SDS011;10050;55.492;13.506;2022-12-17T14:21:50;23.23;;;14.23;;
19780;SDS011;10050;55.492;13.506;2022-12-17T14:24:17;20.53;;;14.07;;
19780;SDS011;10050;55.492;13.506;2022-12-17T14:26:50;22.30;;;14.47;;
19780;SDS011;10050;55.492;13.506;2022-12-17T14:29:22;25.13;;;16.10;;
19780;SDS011;10050;55.492;13.506;2022-12-17T14:31:56;31.10;;;17.60;;
19780;SDS011;10050;55.492;13.506;2022-12-17T14:34:26;25.00;;;16.77;;
19780;SDS011;10050;55.492;13.506;2022-12-17T14:36:56;26.97;;;17.50;;
19780;SDS011;10050;55.492;13.506;2022-12-17T14:39:26;34.13;;;19.97;;
19780;SDS011;10050;55.492;13.506;2022-12-17T14:41:57;38.00;;;22.17;;
19780;SDS011;10050;55.492;13.506;2022-12-17T14:44:56;35.57;;;21.17;;
19780;SDS011;10050;55.492;13.506;2022-12-17T14:47:34;38.33;;;21.37;;
19780;SDS011;10050;55.492;13.506;2022-12-17T14:52:42;33.97;;;20.27;;
19780;SDS011;10050;55.492;13.506;2022-12-17T14:58:05;31.07;;;18.40;;
19780;SDS011;10050;55.492;13.506;2022-12-17T15:00:38;41.07;;;20.43;;
19780;SDS011;10050;55.492;13.506;2022-12-17T15:03:07;36.50;;;21.27;;
19780;SDS011;10050;55.492;13.506;2022-12-17T15:05:35;35.43;;;20.90;;
19780;SDS011;10050;55.492;13.506;2022-12-17T15:08:02;35.80;;;20.63;;
19780;SDS011;10050;55.492;13.506;2022-12-17T15:10:29;38.90;;;20.87;;
19780;SDS011;10050;55.492;13.506;2022-12-17T15:12:55;43.57;;;23.30;;
19780;SDS011;10050;55.492;13.506;2022-12-17T15:15:21;46.40;;;22.17;;
19780;SDS011;10050;55.492;13.506;2022-12-17T15:17:47;45.60;;;25.60;;
19780;SDS011;10050;55.492;13.506;2022-12-17T15:20:16;45.00;;;24.87;;
19780;SDS011;10050;55.492;13.506;2022-12-17T15:22:43;49.07;;;24.90;;
19780;SDS011;10050;55.492;13.506;2022-12-17T15:25:11;53.03;;;26.73;;
19780;SDS011;10050;55.492;13.506;2022-12-17T15:27:41;42.37;;;24.37;;
19780;SDS011;10050;55.492;13.506;2022-12-17T15:30:08;52.43;;;27.20;;
19780;SDS011;10050;55.492;13.506;2022-12-17T15:32:37;41.20;;;23.37;;
19780;SDS011;10050;55.492;13.506;2022-12-17T15:35:03;48.50;;;26.03;;
19780;SDS011;10050;55.492;13.506;2022-12-17T15:37:29;45.83;;;26.47;;
19780;SDS011;10050;55.492;13.506;2022-12-17T15:39:56;50.87;;;26.57;;
19780;SDS011;10050;55.492;13.506;2022-12-17T15:42:21;43.50;;;23.83;;
19780;SDS011;10050;55.492;13.506;2022-12-17T15:45:06;44.00;;;25.03;;
19780;SDS011;10050;55.492;13.506;2022-12-17T15:47:32;41.10;;;24.57;;
19780;SDS011;10050;55.492;13.506;2022-12-17T15:49:57;45.73;;;24.93;;
19780;SDS011;10050;55.492;13.506;2022-12-17T15:52:23;45.83;;;23.50;;
19780;SDS011;10050;55.492;13.506;2022-12-17T15:54:49;41.20;;;23.23;;
19780;SDS011;10050;55.492;13.506;2022-12-17T15:57:14;36.63;;;19.67;;
19780;SDS011;10050;55.492;13.506;2022-12-17T15:59:40;35.20;;;20.23;;
19780;SDS011;10050;55.492;13.506;2022-12-17T16:02:07;36.80;;;21.47;;
19780;SDS011;10050;55.492;13.506;2022-12-17T16:04:34;37.37;;;21.10;;
19780;SDS011;10050;55.492;13.506;2022-12-17T16:07:01;35.20;;;20.40;;
19780;SDS011;10050;55.492;13.506;2022-12-17T16:09:27;36.67;;;20.67;;
19780;SDS011;10050;55.492;13.506;2022-12-17T16:11:53;33.03;;;20.13;;
19780;SDS011;10050;55.492;13.506;2022-12-17T16:14:19;31.13;;;18.50;;
19780;SDS011;10050;55.492;13.506;2022-12-17T16:16:45;35.50;;;21.67;;
19780;SDS011;10050;55.492;13.506;2022-12-17T16:19:10;40.17;;;22.73;;
19780;SDS011;10050;55.492;13.506;2022-12-17T16:21:36;38.30;;;22.33;;
19780;SDS011;10050;55.492;13.506;2022-12-17T16:24:02;45.70;;;22.83;;
19780;SDS011;10050;55.492;13.506;2022-12-17T16:26:27;35.17;;;20.73;;
19780;SDS011;10050;55.492;13.506;2022-12-17T16:28:53;29.70;;;17.17;;
19780;SDS011;10050;55.492;13.506;2022-12-17T16:31:20;35.57;;;19.60;;
19780;SDS011;10050;55.492;13.506;2022-12-17T16:33:46;33.90;;;19.87;;
19780;SDS011;10050;55.492;13.506;2022-12-17T16:36:13;30.20;;;17.80;;
19780;SDS011;10050;55.492;13.506;2022-12-17T16:38:41;26.57;;;16.00;;
19780;SDS011;10050;55.492;13.506;2022-12-17T16:41:12;28.30;;;17.23;;
19780;SDS011;10050;55.492;13.506;2022-12-17T16:43:38;27.57;;;16.80;;
19780;SDS011;10050;55.492;13.506;2022-12-17T16:46:04;29.40;;;14.27;;
19780;SDS011;10050;55.492;13.506;2022-12-17T16:48:34;27.73;;;14.57;;
19780;SDS011;10050;55.492;13.506;2022-12-17T16:51:07;21.60;;;13.77;;
19780;SDS011;10050;55.492;13.506;2022-12-17T16:53:41;18.10;;;11.77;;
19780;SDS011;10050;55.492;13.506;2022-12-17T16:56:07;19.70;;;11.80;;
19780;SDS011;10050;55.492;13.506;2022-12-17T16:58:32;23.30;;;12.90;;
19780;SDS011;10050;55.492;13.506;2022-12-17T17:00:58;19.40;;;12.53;;
19780;SDS011;10050;55.492;13.506;2022-12-17T17:03:24;19.93;;;11.33;;
19780;SDS011;10050;55.492;13.506;2022-12-17T17:05:49;22.20;;;12.73;;
19780;SDS011;10050;55.492;13.506;2022-12-17T17:08:15;20.57;;;12.53;;